ADDS METAR Data INFO
IDs: Format: Raw Decoded Include TAF

Data at: 1147 UTC 23 Jun 2018

KPNC 231053Z AUTO 02006KT 10SM CLR 18/16 A2980 RMK AO2 SLP078 T01830161 $
KPNC 230953Z AUTO 36011KT 10SM CLR 19/17 A2977 RMK AO2 SLP068 T01890172 $
KPNC 230853Z AUTO 00000KT 10SM CLR 19/17 A2974 RMK AO2 SLP060 60001 T01890167 55029 $
KPNC 230753Z AUTO 13008KT 10SM CLR 19/16 A2972 RMK AO2 SLP053 T01890161 $
KPNC 230653Z AUTO 15011KT 10SM CLR 19/17 A2975 RMK AO2 SLP064 P0001 T01890167 $
KPNC 230553Z AUTO 11005KT 10SM FEW100 19/17 A2983 RMK AO2 RAE20 SLP091 P0014 60053 T01890167 10294 20183 403060144 50019 $
KPNC 230500Z AUTO 10008KT 8SM -RA FEW047 SCT060 BKN110 19/17 A2989 RMK AO2 LTG DSNT E-S PRESFR P0003 T01890167 $
KPNC 230453Z AUTO 04006KT 6SM VCTS -RA BR FEW036 SCT050 BKN075 19/17 A2993 RMK AO2 PK WND 33031/0354 LTG DSNT SE-W PRESFR SLP125 P0020 T01890172 $
KPNC 230420Z AUTO 34015G23KT 4SM VCTS RA BR FEW013 BKN035 OVC050 20/18 A2998 RMK AO2 PK WND 33031/0354 LTG DSNT ALQDS P0008 T02000178 $
KPNC 230404Z AUTO 34013G30KT 3SM VCTS RA BR FEW014 BKN028 OVC065 21/18 A2997 RMK AO2 PK WND 33031/0354 LTG DSNT ALQDS P0003 T02060183 $
KPNC 230353Z AUTO 33021G32KT 4SM VCTS -RA FEW034 BKN055 OVC110 21/18 A2995 RMK AO2 PK WND 33032/0352 WSHFT 0309 LTG DSNT ALQDS RAB19 TSB08E36 SLP131 P0019 T02110183 $
KPNC 230342Z AUTO 31012G22KT 4SM VCTS RA BKN047 BKN060 OVC075 21/18 A2993 RMK AO2 WSHFT 0309 LTG DSNT ALQDS RAB19 TSB08E36 P0016 T02110178 $
KPNC 230329Z AUTO 34014KT 3SM +TSRA SCT048 BKN055 OVC100 22/18 A2991 RMK AO2 WSHFT 0309 LTG DSNT ALQDS RAB19 TSB08 P0010 T02220178 $
KPNC 230314Z AUTO 33013G20KT 10SM TS FEW055 BKN100 25/16 A2988 RMK AO2 LTG DSNT SW-N TSB08 PRESRR T02500161 $
KPNC 230253Z AUTO 14005KT 10SM CLR 26/16 A2977 RMK AO2 LTG DSNT W-N SLP069 T02610156 53017 $
KPNC 230153Z AUTO 17004KT 10SM CLR 27/15 A2976 RMK AO2 PRESRR SLP063 T02720150 $
KPNC 230053Z AUTO 12006KT 10SM CLR 28/15 A2972 RMK AO2 SLP052 T02780150 $
KPNC 222353Z AUTO 12007KT 10SM CLR 29/15 A2972 RMK AO2 SLP054 T02890150 10306 20250 58021 $
KPNC 222253Z AUTO 13004KT 10SM CLR 30/16 A2975 RMK AO2 SLP062 T03000156 $
KPNC 222153Z AUTO 10006KT 10SM CLR 30/16 A2978 RMK AO2 SLP073 T03000156 $
KPNC 222053Z AUTO 02006KT 10SM CLR 29/14 A2979 RMK AO2 SLP076 T02890144 56037 $
KPNC 221953Z AUTO 36005KT 10SM CLR 28/14 A2982 RMK AO2 PRESFR SLP088 T02780144 $
KPNC 221853Z AUTO 36008KT 10SM CLR 27/16 A2986 RMK AO2 SLP101 T02720156 $
KPNC 221753Z AUTO 31008KT 10SM CLR 25/16 A2990 RMK AO2 SLP113 T02500156 10250 20156 58006 $
KPNC 221653Z AUTO 34008KT 280V010 10SM CLR 25/16 A2991 RMK AO2 SLP118 T02500156 $
KPNC 221613Z AUTO VRB04KT 10SM FEW002 24/16 A2990 RMK AO2 T02440156 $
KPNC 221553Z AUTO 34007KT 10SM CLR 25/16 A2991 RMK AO2 SLP117 T02500161
KPNC 221453Z AUTO 01006KT 10SM CLR 24/16 A2992 RMK AO2 SLP118 T02390161 53002
KPNC 221353Z AUTO 31004KT 10SM CLR 22/16 A2991 RMK AO2 SLP116 T02220156
KPNC 221253Z AUTO VRB03KT 10SM CLR 19/15 A2991 RMK AO2 SLP114 T01940150
KPNC 221153Z AUTO 00000KT 10SM CLR 16/13 A2991 RMK AO2 SLP116 T01560128 10194 20144 51021
KPNC 221053Z AUTO 00000KT 10SM CLR 15/12 A2989 RMK AO2 SLP111 T01500122
KPNC 220953Z AUTO 35003KT 10SM CLR 15/12 A2987 RMK AO2 SLP105 T01500122
KPNC 220853Z AUTO 00000KT 10SM CLR 16/13 A2984 RMK AO2 SLP094 T01560128 58011
KPNC 220753Z AUTO 00000KT 10SM CLR 18/13 A2985 RMK AO2 SLP097 T01830133
KPNC 220653Z AUTO 00000KT 10SM CLR 17/13 A2987 RMK AO2 SLP104 T01720133
KPNC 220553Z AUTO 24004KT 10SM CLR 19/14 A2988 RMK AO2 SLP107 T01940139 10317 20189 403220183 51013
KPNC 220453Z AUTO 02003KT 10SM CLR 21/13 A2988 RMK AO2 SLP107 T02060133
KPNC 220353Z AUTO 03006KT 10SM CLR 23/13 A2987 RMK AO2 SLP104 T02280133
KPNC 220253Z AUTO 36006KT 9SM CLR 23/12 A2984 RMK AO2 SLP092 T02330117 53010
KPNC 220153Z AUTO 33007KT 10SM CLR 28/11 A2982 RMK AO2 SLP086 T02830111
KPNC 220053Z AUTO 32010G17KT 10SM CLR 31/12 A2981 RMK AO2 SLP082 T03060117
KPNC 212353Z AUTO 10SM CLR 32/12 A2981 RMK AO2 SLP081 T03170122 10322 20267 56014